Date,TemperatureHighF,TemperatureAvgF,TemperatureLowF,DewpointHighF,DewpointAvgF,DewpointLowF,HumidityHigh,HumidityAvg,HumidityLow,PressureMaxIn,PressureMinIn,WindSpeedMaxMPH,WindSpeedAvgMPH,GustSpeedMaxMPH,PrecipitationSumIn
2013-1-1,29,25,21,-100,-100,-100,0,0,100,0.00,40.00,0,-999,0,0.01
2013-1-2,43,28,18,-100,-100,-100,0,0,100,0.00,40.00,0,-999,0,0.00
2013-1-3,40,30,23,-100,-100,-100,0,0,100,0.00,40.00,0,-999,0,0.00
2013-1-4,43,34,25,-100,-100,-100,0,0,100,0.00,40.00,0,-999,0,0.00
2013-1-5,49,38,32,-100,-100,-100,0,0,100,0.00,40.00,0,-999,0,0.00
2013-1-6,52,38,27,-100,-100,-100,0,0,100,0.00,40.00,0,-999,0,0.00
2013-1-7,47,37,31,-100,-100,-100,0,0,100,0.00,40.00,0,-999,0,0.00
2013-1-8,50,40,32,-100,-100,-100,0,0,100,0.00,40.00,0,-999,0,0.00
2013-1-9,45,40,34,-100,-100,-100,0,0,100,0.00,40.00,0,-999,0,0.30
2013-1-10,49,44,42,-100,-100,-100,0,0,100,0.00,40.00,0,-999,0,0.81
2013-1-11,65,51,41,-100,-100,-100,0,0,100,0.00,40.00,0,-999,0,0.01
2013-1-12,47,33,24,-100,-100,-100,0,0,100,0.00,40.00,0,-999,0,0.00
2013-1-13,29,22,16,-100,-100,-100,0,0,100,0.00,40.00,0,-999,0,0.00
2013-1-14,31,24,18,-100,-100,-100,0,0,100,0.00,40.00,0,-999,0,0.00
2013-1-15,34,26,19,-100,-100,-100,0,0,100,0.00,40.00,0,-999,0,0.00
2013-1-16,51,33,18,-100,-100,-100,0,0,100,0.00,40.00,0,-999,0,0.00
2013-1-17,54,41,33,-100,-100,-100,0,0,100,0.00,40.00,0,-999,0,0.00
2013-1-18,59,44,32,-100,-100,-100,0,0,100,0.00,40.00,0,-999,0,0.00
2013-1-19,64,46,34,-100,-100,-100,0,0,100,0.00,40.00,0,-999,0,0.00
2013-1-20,61,46,31,-100,-100,-100,0,0,100,0.00,40.00,0,-999,0,0.00
2013-1-21,41,30,21,-100,-100,-100,0,0,100,0.00,40.00,0,-999,0,0.00
2013-1-22,60,42,26,-100,-100,-100,0,0,100,0.00,40.00,0,-999,0,0.00
2013-1-23,67,45,30,-100,-100,-100,0,0,100,0.00,40.00,0,-999,0,0.00
2013-1-24,45,34,29,-100,-100,-100,0,0,100,0.00,40.00,0,-999,0,0.00
2013-1-25,50,36,24,-100,-100,-100,0,0,100,0.00,40.00,0,-999,0,0.00
2013-1-26,53,41,28,-100,-100,-100,0,0,100,0.00,40.00,0,-999,0,0.00
2013-1-27,74,55,44,-100,-100,-100,0,0,100,0.00,40.00,0,-999,0,0.00
2013-1-28,73,59,45,-100,-100,-100,0,0,100,0.00,40.00,0,-999,0,0.00
2013-1-29,63,52,37,-100,-100,-100,0,0,100,0.00,40.00,0,-999,0,0.08
2013-1-30,45,37,29,-100,-100,-100,0,0,100,0.00,40.00,0,-999,0,0.05
2013-1-31,60,42,24,-100,-100,-100,0,0,100,0.00,40.00,0,-999,0,0.00
2013-2-1,45,30,19,-100,-100,-100,0,0,100,0.00,40.00,0,-999,0,0.00
2013-2-2,60,43,29,-100,-100,-100,0,0,100,0.00,40.00,0,-999,0,0.00
2013-2-3,62,51,33,-100,-100,-100,0,0,100,0.00,40.00,0,-999,0,0.00
2013-2-4,62,52,42,-100,-100,-100,0,0,100,0.00,40.00,0,-999,0,0.00
2013-2-5,64,49,32,-100,-100,-100,0,0,100,0.00,40.00,0,-999,0,0.00
2013-2-6,66,56,49,-100,-100,-100,0,0,100,0.00,40.00,0,-999,0,0.00
2013-2-7,57,52,38,-100,-100,-100,0,0,100,0.00,40.00,0,-999,0,0.00
2013-2-8,54,42,30,-100,-100,-100,0,0,100,0.00,40.00,0,-999,0,0.00
2013-2-9,50,44,38,-100,-100,-100,0,0,100,0.00,40.00,0,-999,0,0.37
2013-2-10,56,47,39,-100,-100,-100,0,0,100,0.00,40.00,0,-999,0,0.37
2013-2-11,47,38,31,-100,-100,-100,0,0,100,0.00,40.00,0,-999,0,0.00
2013-2-12,38,34,29,-100,-100,-100,0,0,100,0.00,40.00,0,-999,0,0.18
2013-2-13,44,32,24,-100,-100,-100,0,0,100,0.00,40.00,0,-999,0,0.01
2013-2-14,53,41,31,-100,-100,-100,0,0,100,0.00,40.00,0,-999,0,0.00
2013-2-15,41,35,30,-100,-100,-100,0,0,100,0.00,40.00,0,-999,0,0.00
2013-2-16,56,39,27,-100,-100,-100,0,0,100,0.00,40.00,0,-999,0,0.00
2013-2-17,68,50,35,-100,-100,-100,0,0,100,0.00,40.00,0,-999,0,0.00
2013-2-18,54,46,35,-100,-100,-100,0,0,100,0.00,40.00,0,-999,0,0.00
2013-2-19,52,41,27,-100,-100,-100,0,0,100,0.00,40.00,0,-999,0,0.00
2013-2-20,44,37,33,-100,-100,-100,0,0,100,0.00,40.00,0,-999,0,0.53
2013-2-21,33,28,21,-100,-100,-100,0,0,100,0.00,40.00,0,-999,0,0.20
2013-2-22,32,24,18,-100,-100,-100,0,0,100,0.00,40.00,0,-999,0,0.04
2013-2-23,45,34,24,-100,-100,-100,0,0,100,0.00,40.00,0,-999,0,0.18
2013-2-24,60,42,32,-100,-100,-100,0,0,100,0.00,40.00,0,-999,0,0.18
2013-2-25,36,32,30,-100,-100,-100,0,0,100,0.00,40.00,0,-999,0,0.83
2013-2-26,37,30,24,-100,-100,-100,0,0,100,0.00,40.00,0,-999,0,0.03
2013-2-27,41,33,25,-100,-100,-100,0,0,100,0.00,40.00,0,-999,0,0.01
2013-2-28,46,35,27,-100,-100,-100,0,0,100,0.00,40.00,0,-999,0,0.00
2013-3-1,43,35,29,-100,-100,-100,0,0,100,0.00,40.00,0,-999,0,0.00
2013-3-2,61,42,26,-100,-100,-100,0,0,100,0.00,40.00,0,-999,0,0.00
2013-3-3,72,53,35,-100,-100,-100,0,0,100,0.00,40.00,0,-999,0,0.00
2013-3-4,63,53,40,-100,-100,-100,0,0,100,0.00,40.00,0,-999,0,0.00
2013-3-5,49,40,31,-100,-100,-100,0,0,100,0.00,40.00,0,-999,0,0.00
2013-3-6,48,38,29,-100,-100,-100,0,0,100,0.00,40.00,0,-999,0,0.00
2013-3-7,67,52,35,-100,-100,-100,0,0,100,0.00,40.00,0,-999,0,0.00
2013-3-8,59,54,50,-100,-100,-100,0,0,100,0.00,40.00,0,-999,0,0.00
2013-3-9,67,59,44,-100,-100,-100,0,0,100,0.00,40.00,0,-999,0,0.22
2013-3-10,43,39,33,-100,-100,-100,0,0,100,0.00,40.00,0,-999,0,0.14
2013-3-11,63,41,24,-100,-100,-100,0,0,100,0.00,40.00,0,-999,0,0.00
2013-3-12,56,46,38,-100,-100,-100,0,0,100,0.00,40.00,0,-999,0,0.00
2013-3-13,63,48,34,-100,-100,-100,0,0,100,0.00,40.00,0,-999,0,0.00
2013-3-14,74,56,41,-100,-100,-100,0,0,100,0.00,40.00,0,-999,0,0.00
2013-3-15,84,64,45,-100,-100,-100,0,0,100,0.00,40.00,0,-999,0,0.00
2013-3-16,61,55,46,-100,-100,-100,0,0,100,0.00,40.00,0,-999,0,0.00
2013-3-17,54,42,35,-100,-100,-100,0,0,100,0.00,40.00,0,-999,0,0.00
2013-3-18,58,46,37,-100,-100,-100,0,0,100,0.00,40.00,0,-999,0,0.00
2013-3-19,57,48,38,-100,-100,-100,0,0,100,0.00,40.00,0,-999,0,0.00
2013-3-20,57,46,31,-100,-100,-100,0,0,100,0.00,40.00,0,-999,0,0.00
2013-3-21,71,54,42,-100,-100,-100,0,0,100,0.00,40.00,0,-999,0,0.00
2013-3-22,46,39,35,-100,-100,-100,0,0,100,0.00,40.00,0,-999,0,0.00
2013-3-23,40,38,32,-100,-100,-100,0,0,100,0.00,40.00,0,-999,0,0.01
2013-3-24,40,32,26,-100,-100,-100,0,0,100,0.00,40.00,0,-999,0,0.01
2013-3-25,45,34,25,-100,-100,-100,0,0,100,0.00,40.00,0,-999,0,0.00
2013-3-26,55,37,19,-100,-100,-100,0,0,100,0.00,40.00,0,-999,0,0.00
2013-3-27,72,54,40,-100,-100,-100,0,0,100,0.00,40.00,0,-999,0,0.00
2013-3-28,71,59,47,-100,-100,-100,0,0,100,0.00,40.00,0,-999,0,0.00
2013-3-29,70,60,46,-100,-100,-100,0,0,100,0.00,40.00,0,-999,0,0.00
2013-3-30,79,64,47,-100,-100,-100,0,0,100,0.00,40.00,0,-999,0,0.00
2013-3-31,66,59,51,-100,-100,-100,0,0,100,0.00,40.00,0,-999,0,0.56
2013-4-1,62,52,38,-100,-100,-100,0,0,100,0.00,40.00,0,-999,0,0.15
2013-4-2,38,36,34,-100,-100,-100,0,0,100,0.00,40.00,0,-999,0,0.05
2013-4-3,36,35,34,-100,-100,-100,0,0,100,0.00,40.00,0,-999,0,0.28
2013-4-4,48,40,34,-100,-100,-100,0,0,100,0.00,40.00,0,-999,0,0.07
2013-4-5,64,50,36,-100,-100,-100,0,0,100,0.00,40.00,0,-999,0,0.01
2013-4-6,71,60,50,-100,-100,-100,0,0,100,0.00,40.00,0,-999,0,0.00
2013-4-7,79,62,50,-100,-100,-100,0,0,100,0.00,40.00,0,-999,0,0.00
2013-4-8,80,64,59,-100,-100,-100,0,0,100,0.00,40.00,0,-999,0,0.00
2013-4-9,67,52,30,-100,-100,-100,0,0,100,0.00,40.00,0,-999,0,0.10
2013-4-10,44,34,25,-100,-100,-100,0,0,100,0.00,40.00,0,-999,0,0.28
2013-4-11,62,43,27,-100,-100,-100,0,0,100,0.00,40.00,0,-999,0,0.11
2013-4-12,60,48,38,-100,-100,-100,0,0,100,0.00,40.00,0,-999,0,0.00
2013-4-13,73,56,43,-100,-100,-100,0,0,100,0.00,40.00,0,-999,0,0.00
2013-4-14,81,67,56,-100,-100,-100,0,0,100,0.00,40.00,0,-999,0,0.00
2013-4-15,67,57,50,-100,-100,-100,0,0,100,0.00,40.00,0,-999,0,0.00
2013-4-16,54,48,44,-100,-100,-100,0,0,100,0.00,40.00,0,-999,0,0.00
2013-4-17,47,46,41,-100,-100,-100,0,0,100,0.00,40.00,0,-999,0,0.23
2013-4-18,47,39,34,-100,-100,-100,0,0,100,0.00,40.00,0,-999,0,0.07
2013-4-19,65,46,32,-100,-100,-100,0,0,100,0.00,40.00,0,-999,0,0.00
2013-4-20,68,54,42,-100,-100,-100,0,0,100,0.00,40.00,0,-999,0,0.00
2013-4-21,67,57,48,-100,-100,-100,0,0,100,0.00,40.00,0,-999,0,0.00
2013-4-22,79,62,48,-100,-100,-100,0,0,100,0.00,40.00,0,-999,0,0.00
2013-4-23,45,35,33,-100,-100,-100,0,0,100,0.00,40.00,0,-999,0,0.00
2013-4-24,58,42,27,-100,-100,-100,0,0,100,0.00,40.00,0,-999,0,0.00
2013-4-25,64,55,42,-100,-100,-100,0,0,100,0.00,40.00,0,-999,0,0.00
2013-4-26,75,62,56,-100,-100,-100,0,0,100,0.00,40.00,0,-999,0,0.78
2013-4-27,71,60,51,-100,-100,-100,0,0,100,0.00,40.00,0,-999,0,0.78
2013-4-28,85,67,49,-100,-100,-100,0,0,100,0.00,40.00,0,-999,0,0.00
2013-4-29,89,71,59,-100,-100,-100,0,0,100,0.00,40.00,0,-999,0,0.00
2013-4-30,86,77,64,-100,-100,-100,0,0,100,0.00,40.00,0,-999,0,0.00
2013-5-1,73,60,39,-100,-100,-100,0,0,100,0.00,40.00,0,-999,0,0.00
2013-5-2,50,42,36,-100,-100,-100,0,0,100,0.00,40.00,0,-999,0,0.22
2013-5-3,61,47,34,-100,-100,-100,0,0,100,0.00,40.00,0,-999,0,0.02
2013-5-4,64,52,38,-100,-100,-100,0,0,100,0.00,40.00,0,-999,0,0.00
2013-5-5,67,51,40,-100,-100,-100,0,0,100,0.00,40.00,0,-999,0,0.00
2013-5-6,72,61,45,-100,-100,-100,0,0,100,0.00,40.00,0,-999,0,0.00
2013-5-7,80,68,57,-100,-100,-100,0,0,100,0.00,40.00,0,-999,0,0.00
2013-5-8,84,72,60,-100,-100,-100,0,0,100,0.00,40.00,0,-999,0,0.00
2013-5-9,72,65,60,-100,-100,-100,0,0,100,0.00,40.00,0,-999,0,0.00
2013-5-10,69,62,56,-100,-100,-100,0,0,100,0.00,40.00,0,-999,0,0.00
2013-5-11,75,62,50,-100,-100,-100,0,0,100,0.00,40.00,0,-999,0,0.00
2013-5-12,79,65,50,-100,-100,-100,0,0,100,0.00,40.00,0,-999,0,0.00
2013-5-13,91,76,63,-100,-100,-100,0,0,100,0.00,40.00,0,-999,0,0.00
2013-5-14,87,76,62,-100,-100,-100,0,0,100,0.00,40.00,0,-999,0,0.00
2013-5-15,76,69,64,-100,-100,-100,0,0,100,0.00,40.00,0,-999,0,0.00
2013-5-16,78,66,58,-100,-100,-100,0,0,100,0.00,40.00,0,-999,0,0.00
2013-5-17,80,69,60,-100,-100,-100,0,0,100,0.00,40.00,0,-999,0,0.00
2013-5-18,97,77,68,-100,-100,-100,0,0,100,0.00,40.00,0,-999,0,0.01
2013-5-19,93,79,68,-100,-100,-100,0,0,100,0.00,40.00,0,-999,0,0.01
2013-5-20,84,73,59,-100,-100,-100,0,0,100,0.00,40.00,0,-999,0,0.57
2013-5-21,73,65,59,-100,-100,-100,0,0,100,0.00,40.00,0,-999,0,0.02
2013-5-22,83,69,56,-100,-100,-100,0,0,100,0.00,40.00,0,-999,0,0.02
2013-5-23,82,69,60,-100,-100,-100,0,0,100,0.00,40.00,0,-999,0,0.00
2013-5-24,85,72,60,-100,-100,-100,0,0,100,0.00,40.00,0,-999,0,0.19
2013-5-25,83,74,63,-100,-100,-100,0,0,100,0.00,40.00,0,-999,0,0.19
2013-5-26,92,79,67,-100,-100,-100,0,0,100,0.00,40.00,0,-999,0,0.00
2013-5-27,94,82,72,-100,-100,-100,0,0,100,0.00,40.00,0,-999,0,0.00
2013-5-28,84,77,71,-100,-100,-100,0,0,100,0.00,40.00,0,-999,0,0.00
2013-5-29,82,74,63,-100,-100,-100,0,0,100,0.00,40.00,0,-999,0,2.20
2013-5-30,73,72,70,-100,-100,-100,0,0,100,0.00,40.00,0,-999,0,2.20
2013-5-31,93,85,71,-100,-100,-100,0,0,100,0.00,40.00,0,-999,0,0.00
2013-6-1,82,72,63,-100,-100,-100,0,0,100,0.00,40.00,0,-999,0,0.00
2013-6-2,78,66,55,-100,-100,-100,0,0,100,0.00,40.00,0,-999,0,0.00
2013-6-3,90,73,59,-100,-100,-100,0,0,100,0.00,40.00,0,-999,0,0.00
2013-6-4,90,77,64,-100,-100,-100,0,0,100,0.00,40.00,0,-999,0,0.00
2013-6-5,84,74,65,-100,-100,-100,0,0,100,0.00,40.00,0,-999,0,0.01
2013-6-6,77,68,61,-100,-100,-100,0,0,100,0.00,40.00,0,-999,0,0.01
2013-6-7,82,70,57,-100,-100,-100,0,0,100,0.00,40.00,0,-999,0,0.00
2013-6-8,87,75,64,-100,-100,-100,0,0,100,0.00,40.00,0,-999,0,0.43
2013-6-9,89,74,61,-100,-100,-100,0,0,100,0.00,40.00,0,-999,0,0.44
2013-6-10,98,84,71,-100,-100,-100,0,0,100,0.00,40.00,0,-999,0,0.00
2013-6-11,96,86,74,-100,-100,-100,0,0,100,0.00,40.00,0,-999,0,0.00
2013-6-12,98,86,74,-100,-100,-100,0,0,100,0.00,40.00,0,-999,0,0.00
2013-6-13,97,86,74,-100,-100,-100,0,0,100,0.00,40.00,0,-999,0,0.00
2013-6-14,92,83,72,-100,-100,-100,0,0,100,0.00,40.00,0,-999,0,0.00
2013-6-15,88,79,71,-100,-100,-100,0,0,100,0.00,40.00,0,-999,0,0.03
2013-6-16,94,77,69,-100,-100,-100,0,0,100,0.00,40.00,0,-999,0,0.03
2013-6-17,84,74,66,-100,-100,-100,0,0,100,0.00,40.00,0,-999,0,0.85
2013-6-18,85,77,67,-100,-100,-100,0,0,100,0.00,40.00,0,-999,0,0.15
2013-6-19,84,74,68,-100,-100,-100,0,0,100,0.00,40.00,0,-999,0,0.10
2013-6-20,94,77,69,-100,-100,-100,0,0,100,0.00,40.00,0,-999,0,0.02
2013-6-22,94,89,81,-100,-100,-100,0,0,100,0.00,40.00,0,-999,0,0.00
2013-6-23,95,86,76,-100,-100,-100,0,0,100,0.00,40.00,0,-999,0,0.00
2013-6-24,94,85,76,-100,-100,-100,0,0,100,0.00,40.00,0,-999,0,0.00
2013-6-25,98,86,77,-100,-100,-100,0,0,100,0.00,40.00,0,-999,0,0.00
2013-6-26,101,89,78,-100,-100,-100,0,0,100,0.00,40.00,0,-999,0,0.00
2013-6-27,105,90,79,-100,-100,-100,0,0,100,0.00,40.00,0,-999,0,0.00
2013-6-28,97,84,71,-100,-100,-100,0,0,100,0.00,40.00,0,-999,0,0.00
2013-6-29,92,82,73,-100,-100,-100,0,0,100,0.00,40.00,0,-999,0,0.00
2013-6-30,88,77,66,-100,-100,-100,0,0,100,0.00,40.00,0,-999,0,0.00
2013-7-1,81,71,59,-100,-100,-100,0,0,100,0.00,40.00,0,-999,0,0.00
2013-7-2,83,72,57,-100,-100,-100,0,0,100,0.00,40.00,0,-999,0,0.00
2013-7-3,87,76,59,-100,-100,-100,0,0,100,0.00,40.00,0,-999,0,0.00
2013-7-4,92,80,67,-100,-100,-100,0,0,100,0.00,40.00,0,-999,0,0.04
2013-7-5,95,83,68,-100,-100,-100,0,0,100,0.00,40.00,0,-999,0,0.04
2013-7-6,94,81,76,-100,-100,-100,0,0,100,0.00,40.00,0,-999,0,0.00
2013-7-7,96,85,73,-100,-100,-100,0,0,100,0.00,40.00,0,-999,0,0.00
2013-7-8,97,83,74,-100,-100,-100,0,0,100,0.00,40.00,0,-999,0,0.00
2013-7-9,100,89,77,-100,-100,-100,0,0,100,0.00,40.00,0,-999,0,0.04
2013-7-10,99,89,78,-100,-100,-100,0,0,100,0.00,40.00,0,-999,0,0.04
2013-7-11,97,85,74,-100,-100,-100,0,0,100,0.00,40.00,0,-999,0,0.00
2013-7-12,99,86,74,-100,-100,-100,0,0,100,0.00,40.00,0,-999,0,0.00
2013-7-13,102,89,76,-100,-100,-100,0,0,100,0.00,40.00,0,-999,0,0.00
2013-7-14,86,74,64,-100,-100,-100,0,0,100,0.00,40.00,0,-999,0,0.55
2013-7-15,72,67,64,-100,-100,-100,0,0,100,0.00,40.00,0,-999,0,0.35
2013-7-16,72,68,65,-100,-100,-100,0,0,100,0.00,40.00,0,-999,0,1.14
2013-7-17,83,73,68,-100,-100,-100,0,0,100,0.00,40.00,0,-999,0,0.10
2013-7-18,86,81,70,-100,-100,-100,0,0,100,0.00,40.00,0,-999,0,0.05
2013-7-19,90,81,70,-100,-100,-100,0,0,100,0.00,40.00,0,-999,0,0.00
2013-7-20,93,83,71,-100,-100,-100,0,0,100,0.00,40.00,0,-999,0,0.00
2013-7-21,95,85,74,-100,-100,-100,0,0,100,0.00,40.00,0,-999,0,0.00
2013-7-22,95,86,75,-100,-100,-100,0,0,100,0.00,40.00,0,-999,0,0.00
2013-7-23,97,87,76,-100,-100,-100,0,0,100,0.00,40.00,0,-999,0,0.00
2013-7-24,93,83,70,-100,-100,-100,0,0,100,0.00,40.00,0,-999,0,0.00
2013-7-25,79,74,69,-100,-100,-100,0,0,100,0.00,40.00,0,-999,0,0.31
2013-7-26,84,76,69,-100,-100,-100,0,0,100,0.00,40.00,0,-999,0,0.16
2013-7-27,89,77,65,-100,-100,-100,0,0,100,0.00,40.00,0,-999,0,0.07
2013-7-28,90,78,67,-100,-100,-100,0,0,100,0.00,40.00,0,-999,0,0.00
2013-7-29,95,83,73,-100,-100,-100,0,0,100,0.00,40.00,0,-999,0,0.00
2013-7-30,84,77,65,-100,-100,-100,0,0,100,0.00,40.00,0,-999,0,1.20
2013-7-31,90,79,72,-100,-100,-100,0,0,100,0.00,40.00,0,-999,0,0.02
2013-8-1,92,81,72,-100,-100,-100,0,0,100,0.00,40.00,0,-999,0,0.00
2013-8-2,102,89,76,-100,-100,-100,0,0,100,0.00,40.00,0,-999,0,0.00
2013-8-3,100,89,79,-100,-100,-100,0,0,100,0.00,40.00,0,-999,0,0.00
2013-8-4,99,87,76,-100,-100,-100,0,0,100,0.00,40.00,0,-999,0,0.00
2013-8-5,101,90,77,-100,-100,-100,0,0,100,0.00,40.00,0,-999,0,0.00
2013-8-6,103,91,77,-100,-100,-100,0,0,100,0.00,40.00,0,-999,0,0.00
2013-8-7,95,85,76,-100,-100,-100,0,0,100,0.00,40.00,0,-999,0,0.00
2013-8-8,87,77,69,-100,-100,-100,0,0,100,0.00,40.00,0,-999,0,0.26
2013-8-9,83,73,67,-100,-100,-100,0,0,100,0.00,40.00,0,-999,0,0.50
2013-8-10,81,72,66,-100,-100,-100,0,0,100,0.00,40.00,0,-999,0,0.01
2013-8-11,90,77,68,-100,-100,-100,0,0,100,0.00,40.00,0,-999,0,0.20
2013-8-12,94,79,71,-100,-100,-100,0,0,100,0.00,40.00,0,-999,0,0.21
2013-8-13,83,74,67,-100,-100,-100,0,0,100,0.00,40.00,0,-999,0,0.48
2013-8-14,81,73,67,-100,-100,-100,0,0,100,0.00,40.00,0,-999,0,0.01
2013-8-15,85,75,67,-100,-100,-100,0,0,100,0.00,40.00,0,-999,0,0.00
2013-8-16,86,75,66,-100,-100,-100,0,0,100,0.00,40.00,0,-999,0,0.00
2013-8-17,82,74,66,-100,-100,-100,0,0,100,0.00,40.00,0,-999,0,0.00
2013-8-18,87,76,65,-100,-100,-100,0,0,100,0.00,40.00,0,-999,0,0.00
2013-8-19,90,78,67,-100,-100,-100,0,0,100,0.00,40.00,0,-999,0,0.00
2013-8-20,94,81,69,-100,-100,-100,0,0,100,0.00,40.00,0,-999,0,0.00
2013-8-21,93,81,68,-100,-100,-100,0,0,100,0.00,40.00,0,-999,0,0.00
2013-8-22,93,80,69,-100,-100,-100,0,0,100,0.00,40.00,0,-999,0,0.02
2013-8-23,96,83,73,-100,-100,-100,0,0,100,0.00,40.00,0,-999,0,0.02
2013-8-24,94,84,74,-100,-100,-100,0,0,100,0.00,40.00,0,-999,0,0.00
2013-8-25,94,84,74,-100,-100,-100,0,0,100,0.00,40.00,0,-999,0,0.00
2013-8-26,91,82,72,-100,-100,-100,0,0,100,0.00,40.00,0,-999,0,0.00
2013-8-27,88,78,69,-100,-100,-100,0,0,100,0.00,40.00,0,-999,0,0.00
2013-8-28,93,89,82,-100,-100,-100,0,0,100,0.00,40.00,0,-999,0,0.00
2013-8-29,96,84,72,-100,-100,-100,0,0,100,0.00,40.00,0,-999,0,0.00
2013-8-30,101,88,77,-100,-100,-100,0,0,100,0.00,40.00,0,-999,0,0.00
2013-8-31,101,89,73,-100,-100,-100,0,0,100,0.00,40.00,0,-999,0,0.00
2013-9-1,88,83,76,-100,-100,-100,0,0,100,0.00,40.00,0,-999,0,0.00
2013-9-2,90,78,70,-100,-100,-100,0,0,100,0.00,40.00,0,-999,0,0.00
2013-9-3,91,78,62,-100,-100,-100,0,0,100,0.00,40.00,0,-999,0,0.00
2013-9-4,93,80,64,-100,-100,-100,0,0,100,0.00,40.00,0,-999,0,0.00
2013-9-5,94,82,68,-100,-100,-100,0,0,100,0.00,40.00,0,-999,0,0.00
2013-9-6,96,85,73,-100,-100,-100,0,0,100,0.00,40.00,0,-999,0,0.00
2013-9-7,98,87,73,-100,-100,-100,0,0,100,0.00,40.00,0,-999,0,0.00
2013-9-8,95,86,74,-100,-100,-100,0,0,100,0.00,40.00,0,-999,0,0.00
2013-9-9,91,82,71,-100,-100,-100,0,0,100,0.00,40.00,0,-999,0,0.00
2013-9-10,88,81,72,-100,-100,-100,0,0,100,0.00,40.00,0,-999,0,0.00
2013-9-11,90,81,72,-100,-100,-100,0,0,100,0.00,40.00,0,-999,0,0.00
2013-9-12,91,80,68,-100,-100,-100,0,0,100,0.00,40.00,0,-999,0,0.00
2013-9-13,82,75,70,-100,-100,-100,0,0,100,0.00,40.00,0,-999,0,0.26
2013-9-14,82,73,65,-100,-100,-100,0,0,100,0.00,40.00,0,-999,0,0.11
2013-9-15,87,79,70,-100,-100,-100,0,0,100,0.00,40.00,0,-999,0,0.11
2013-9-16,82,73,67,-100,-100,-100,0,0,100,0.00,40.00,0,-999,0,1.80
2013-9-17,84,74,68,-100,-100,-100,0,0,100,0.00,40.00,0,-999,0,0.02
2013-9-18,77,72,70,-100,-100,-100,0,0,100,0.00,40.00,0,-999,0,0.02
2013-9-19,85,76,65,-100,-100,-100,0,0,100,0.00,40.00,0,-999,0,0.07
2013-9-20,68,65,57,-100,-100,-100,0,0,100,0.00,40.00,0,-999,0,0.22
2013-9-21,78,66,55,-100,-100,-100,0,0,100,0.00,40.00,0,-999,0,0.00
2013-9-22,80,70,57,-100,-100,-100,0,0,100,0.00,40.00,0,-999,0,0.00
2013-9-23,84,71,57,-100,-100,-100,0,0,100,0.00,40.00,0,-999,0,0.00
2013-9-24,83,71,60,-100,-100,-100,0,0,100,0.00,40.00,0,-999,0,0.00
2013-9-25,89,73,56,-100,-100,-100,0,0,100,0.00,40.00,0,-999,0,0.00
2013-9-26,91,78,66,-100,-100,-100,0,0,100,0.00,40.00,0,-999,0,0.00
2013-9-27,86,77,66,-100,-100,-100,0,0,100,0.00,40.00,0,-999,0,0.00
2013-9-28,77,66,55,-100,-100,-100,0,0,100,0.00,40.00,0,-999,0,1.13
2013-9-29,76,63,50,-100,-100,-100,0,0,100,0.00,40.00,0,-999,0,0.01
2013-9-30,83,68,55,-100,-100,-100,0,0,100,0.00,40.00,0,-999,0,0.00
2013-10-1,82,77,73,-100,-100,-100,0,0,100,0.00,40.00,0,-999,0,0.00
2013-10-2,84,74,65,-100,-100,-100,0,0,100,0.00,40.00,0,-999,0,0.00
2013-10-3,87,77,68,-100,-100,-100,0,0,100,0.00,40.00,0,-999,0,0.00
2013-10-4,88,77,62,-100,-100,-100,0,0,100,0.00,40.00,0,-999,0,0.61
2013-10-5,66,56,49,-100,-100,-100,0,0,100,0.00,40.00,0,-999,0,0.61
2013-10-6,73,58,47,-100,-100,-100,0,0,100,0.00,40.00,0,-999,0,0.00
2013-10-7,76,62,50,-100,-100,-100,0,0,100,0.00,40.00,0,-999,0,0.00
2013-10-8,80,64,52,-100,-100,-100,0,0,100,0.00,40.00,0,-999,0,0.00
2013-10-9,79,66,53,-100,-100,-100,0,0,100,0.00,40.00,0,-999,0,0.00
2013-10-10,80,69,57,-100,-100,-100,0,0,100,0.00,40.00,0,-999,0,0.00
2013-10-11,83,70,61,-100,-100,-100,0,0,100,0.00,40.00,0,-999,0,0.00
2013-10-12,70,61,52,-100,-100,-100,0,0,100,0.00,40.00,0,-999,0,0.00
2013-10-13,68,60,53,-100,-100,-100,0,0,100,0.00,40.00,0,-999,0,0.00
2013-10-14,71,68,64,-100,-100,-100,0,0,100,0.00,40.00,0,-999,0,0.04
2013-10-15,68,55,47,-100,-100,-100,0,0,100,0.00,40.00,0,-999,0,0.04
2013-10-16,50,46,41,-100,-100,-100,0,0,100,0.00,40.00,0,-999,0,0.01
2013-10-17,68,54,40,-100,-100,-100,0,0,100,0.00,40.00,0,-999,0,0.01
2013-10-18,59,45,35,-100,-100,-100,0,0,100,0.00,40.00,0,-999,0,0.17
2013-10-19,67,50,34,-100,-100,-100,0,0,100,0.00,40.00,0,-999,0,0.02
2013-10-20,73,56,41,-100,-100,-100,0,0,100,0.00,40.00,0,-999,0,0.00
2013-10-21,60,54,45,-100,-100,-100,0,0,100,0.00,40.00,0,-999,0,0.02
2013-10-22,75,61,47,-100,-100,-100,0,0,100,0.00,40.00,0,-999,0,0.02
2013-10-23,82,62,44,-100,-100,-100,0,0,100,0.00,40.00,0,-999,0,0.00
2013-10-24,57,52,44,-100,-100,-100,0,0,100,0.00,40.00,0,-999,0,0.00
2013-10-25,62,49,38,-100,-100,-100,0,0,100,0.00,40.00,0,-999,0,0.00
2013-10-26,68,56,48,-100,-100,-100,0,0,100,0.00,40.00,0,-999,0,0.00
2013-10-27,68,52,36,-100,-100,-100,0,0,100,0.00,40.00,0,-999,0,0.00
2013-10-28,65,57,50,-100,-100,-100,0,0,100,0.00,40.00,0,-999,0,0.00
2013-10-29,75,68,62,-100,-100,-100,0,0,100,0.00,40.00,0,-999,0,0.00
2013-10-30,77,70,67,-100,-100,-100,0,0,100,0.00,40.00,0,-999,0,0.00
2013-10-31,67,59,47,-100,-100,-100,0,0,100,0.00,40.00,0,-999,0,0.00
2013-11-1,66,55,42,-100,-100,-100,0,0,100,0.00,40.00,0,-999,0,0.00
2013-11-2,63,51,40,-100,-100,-100,0,0,100,0.00,40.00,0,-999,0,0.00
2013-11-3,65,53,43,-100,-100,-100,0,0,100,0.00,40.00,0,-999,0,0.00
2013-11-4,66,57,50,-100,-100,-100,0,0,100,0.00,40.00,0,-999,0,0.00
2013-11-5,66,58,45,-100,-100,-100,0,0,100,0.00,40.00,0,-999,0,0.56
2013-11-6,55,45,36,-100,-100,-100,0,0,100,0.00,40.00,0,-999,0,0.40
2013-11-7,65,50,39,-100,-100,-100,0,0,100,0.00,40.00,0,-999,0,0.00
2013-11-8,65,52,40,-100,-100,-100,0,0,100,0.00,40.00,0,-999,0,0.00
2013-11-9,62,53,43,-100,-100,-100,0,0,100,0.00,40.00,0,-999,0,0.00
2013-11-10,59,53,46,-100,-100,-100,0,0,100,0.00,40.00,0,-999,0,0.00
2013-11-11,62,53,38,-100,-100,-100,0,0,100,0.00,40.00,0,-999,0,0.00
2013-11-12,41,32,24,-100,-100,-100,0,0,100,0.00,40.00,0,-999,0,0.00
2013-11-13,50,36,21,-100,-100,-100,0,0,100,0.00,40.00,0,-999,0,0.00
2013-11-14,55,43,34,-100,-100,-100,0,0,100,0.00,40.00,0,-999,0,0.00
2013-11-15,65,49,33,-100,-100,-100,0,0,100,0.00,40.00,0,-999,0,0.00
2013-11-16,79,67,54,-100,-100,-100,0,0,100,0.00,40.00,0,-999,0,0.00
2013-11-17,69,60,48,-100,-100,-100,0,0,100,0.00,40.00,0,-999,0,0.00
2013-11-18,59,49,37,-100,-100,-100,0,0,100,0.00,40.00,0,-999,0,0.00
2013-11-19,61,54,47,-100,-100,-100,0,0,100,0.00,40.00,0,-999,0,0.00
2013-11-20,68,59,51,-100,-100,-100,0,0,100,0.00,40.00,0,-999,0,0.00
2013-11-21,65,47,27,-100,-100,-100,0,0,100,0.00,40.00,0,-999,0,0.00
2013-11-22,29,26,24,-100,-100,-100,0,0,100,0.00,40.00,0,-999,0,0.00
2013-11-23,36,31,28,-100,-100,-100,0,0,100,0.00,40.00,0,-999,0,0.00
2013-11-24,29,25,23,-100,-100,-100,0,0,100,0.00,40.00,0,-999,0,0.00
2013-11-25,33,28,24,-100,-100,-100,0,0,100,0.00,40.00,0,-999,0,0.00
2013-11-26,46,34,27,-100,-100,-100,0,0,100,0.00,40.00,0,-999,0,0.14
2013-11-27,40,31,20,-100,-100,-100,0,0,100,0.00,40.00,0,-999,0,0.13
2013-11-28,54,42,31,-100,-100,-100,0,0,100,0.00,40.00,0,-999,0,0.00
2013-11-29,56,42,31,-100,-100,-100,0,0,100,0.00,40.00,0,-999,0,0.00
2013-11-30,57,45,35,-100,-100,-100,0,0,100,0.00,40.00,0,-999,0,0.00
2013-12-1,60,47,39,-100,-100,-100,0,0,100,0.00,40.00,0,-999,0,0.00
2013-12-2,68,51,36,-100,-100,-100,0,0,100,0.00,40.00,0,-999,0,0.00
2013-12-3,72,52,36,-100,-100,-100,0,0,100,0.00,40.00,0,-999,0,0.00
2013-12-4,50,38,27,-100,-100,-100,0,0,100,0.00,40.00,0,-999,0,0.00
2013-12-5,26,20,17,-100,-100,-100,0,0,100,0.00,40.00,0,-999,0,0.00
2013-12-6,20,16,13,-100,-100,-100,0,0,100,0.00,40.00,0,-999,0,0.00
2013-12-7,17,12,6,-100,-100,-100,0,0,100,0.00,40.00,0,-999,0,0.00
2013-12-8,32,21,15,-100,-100,-100,0,0,100,0.00,40.00,0,-999,0,0.00
2013-12-9,22,18,10,-100,-100,-100,0,0,100,0.00,40.00,0,-999,0,0.00
2013-12-10,43,27,8,-100,-100,-100,0,0,100,0.00,40.00,0,-999,0,0.00
2013-12-11,37,29,21,-100,-100,-100,0,0,100,0.00,40.00,0,-999,0,0.00
2013-12-12,37,28,17,-100,-100,-100,0,0,100,0.00,40.00,0,-999,0,0.00
2013-12-13,51,41,36,-100,-100,-100,0,0,100,0.00,40.00,0,-999,0,0.00
2013-12-14,46,34,26,-100,-100,-100,0,0,100,0.00,40.00,0,-999,0,0.00
2013-12-15,59,45,31,-100,-100,-100,0,0,100,0.00,40.00,0,-999,0,0.00
2013-12-16,68,50,34,-100,-100,-100,0,0,100,0.00,40.00,0,-999,0,0.00
2013-12-17,60,49,38,-100,-100,-100,0,0,100,0.00,40.00,0,-999,0,0.00
2013-12-18,67,50,35,-100,-100,-100,0,0,100,0.00,40.00,0,-999,0,0.00
2013-12-19,64,54,47,-100,-100,-100,0,0,100,0.00,40.00,0,-999,0,0.00
2013-12-20,50,31,23,-100,-100,-100,0,0,100,0.00,40.00,0,-999,0,0.00
2013-12-21,28,26,24,-100,-100,-100,0,0,100,0.00,40.00,0,-999,0,0.00
2013-12-22,33,26,21,-100,-100,-100,0,0,100,0.00,40.00,0,-999,0,0.03
2013-12-23,30,25,23,-100,-100,-100,0,0,100,0.00,40.00,0,-999,0,0.01
2013-12-24,31,27,24,-100,-100,-100,0,0,100,0.00,40.00,0,-999,0,0.00
2013-12-25,48,35,29,-100,-100,-100,0,0,100,0.00,40.00,0,-999,0,0.22
2013-12-26,53,40,29,-100,-100,-100,0,0,100,0.00,40.00,0,-999,0,0.01
2013-12-27,57,42,26,-100,-100,-100,0,0,100,0.00,40.00,0,-999,0,0.00
2013-12-28,55,41,29,-100,-100,-100,0,0,100,0.00,40.00,0,-999,0,0.00
2013-12-29,39,25,18,-100,-100,-100,0,0,100,0.00,40.00,0,-999,0,0.00
2013-12-30,45,26,14,-100,-100,-100,0,0,100,0.00,40.00,0,-999,0,0.00
2013-12-31,53,41,29,-100,-100,-100,0,0,100,0.00,40.00,0,-999,0,0.00
2014-1-1,50,34,21,-100,-100,-100,0,0,100,0.00,40.00,0,-999,0,0.00
2014-1-2,45,29,16,-100,-100,-100,0,0,100,0.00,40.00,0,-999,0,0.00